Time;durP1;ratioP1;P1;durP2;ratioP2;P2;SDS_P1;SDS_P2;PMS_P1;PMS_P2;Temp;Humidity;BMP_temperature;BMP_pressure;BME280_temperature;BME280_humidity;BME280_pressure;Samples;Min_cycle;Max_cycle;Signal;HPM_P1;HPM_P2
2023/06/05 00:00:48;;;;;;;6.63;2.30;;;;;;;12.99;100.00;102267.63;4969859;28;20046;-71
2023/06/05 00:03:17;;;;;;;6.97;2.60;;;;;;;12.97;100.00;102247.53;4969652;28;20145;-71
2023/06/05 00:05:45;;;;;;;7.05;2.90;;;;;;;12.96;100.00;102267.72;4965130;28;20046;-72
2023/06/05 00:08:12;;;;;;;7.70;2.58;;;;;;;12.94;100.00;102258.13;4979717;28;20053;-72
2023/06/05 00:10:38;;;;;;;6.78;2.25;;;;;;;12.99;100.00;102264.13;4973212;28;20106;-72
2023/06/05 00:13:05;;;;;;;5.15;1.92;;;;;;;12.98;100.00;102265.91;4974026;28;20138;-72
2023/06/05 00:15:35;;;;;;;7.13;2.13;;;;;;;12.99;100.00;102257.09;4973204;28;20419;-72
2023/06/05 00:18:03;;;;;;;6.80;2.33;;;;;;;12.93;100.00;102249.38;4974322;28;20074;-72
2023/06/05 00:20:31;;;;;;;6.57;2.30;;;;;;;12.88;100.00;102265.25;4973721;28;20046;-72
2023/06/05 00:22:57;;;;;;;6.47;2.17;;;;;;;12.99;100.00;102243.09;4974004;28;20054;-72
2023/06/05 00:25:24;;;;;;;7.10;2.53;;;;;;;13.15;100.00;102230.44;4973753;28;20065;-72
2023/06/05 00:27:51;;;;;;;6.20;2.42;;;;;;;13.31;100.00;102260.75;4973299;28;20652;-72
2023/06/05 00:30:18;;;;;;;9.82;2.40;;;;;;;13.23;100.00;102255.66;4973135;28;20050;-72
2023/06/05 00:32:44;;;;;;;7.10;2.10;;;;;;;13.25;100.00;102255.63;4973111;28;20058;-73
2023/06/05 00:35:11;;;;;;;7.50;2.13;;;;;;;13.43;100.00;102259.59;4972263;28;20047;-72
2023/06/05 00:37:38;;;;;;;7.30;2.42;;;;;;;13.42;100.00;102255.22;4959033;28;20102;-72
2023/06/05 00:40:06;;;;;;;6.85;1.95;;;;;;;13.58;100.00;102263.59;4956164;28;20074;-72
2023/06/05 00:42:33;;;;;;;5.93;2.25;;;;;;;13.46;100.00;102256.91;4973551;28;20165;-73
2023/06/05 00:45:00;;;;;;;7.88;2.50;;;;;;;13.46;100.00;102268.28;4972750;28;20122;-72
2023/06/05 00:47:27;;;;;;;7.28;2.83;;;;;;;13.41;100.00;102261.41;4973142;28;20061;-72
2023/06/05 00:49:54;;;;;;;6.88;2.40;;;;;;;13.43;100.00;102262.22;4973199;28;20051;-72
2023/06/05 00:52:21;;;;;;;7.72;2.70;;;;;;;13.33;100.00;102258.09;4973329;28;20493;-72
2023/06/05 00:54:47;;;;;;;6.28;2.42;;;;;;;13.24;100.00;102261.78;4972523;28;20046;-72
2023/06/05 00:57:14;;;;;;;6.97;2.28;;;;;;;13.35;100.00;102259.81;4973383;28;20533;-72
2023/06/05 00:59:44;;;;;;;7.95;2.33;;;;;;;13.45;100.00;102256.00;4973059;28;20749;-72
2023/06/05 01:02:14;;;;;;;6.88;2.35;;;;;;;13.41;100.00;102253.50;4972841;28;20055;-72
2023/06/05 01:04:43;;;;;;;5.50;2.20;;;;;;;13.34;100.00;102233.53;4972376;28;20069;-72
2023/06/05 01:07:10;;;;;;;8.40;3.17;;;;;;;13.45;100.00;102256.00;4970965;28;20054;-72
2023/06/05 01:09:38;;;;;;;12.00;3.83;;;;;;;13.50;100.00;102258.53;4972758;28;20047;-72
2023/06/05 01:12:16;;;;;;;9.05;3.08;;;;;;;13.40;100.00;102257.03;4972849;28;20429;-72
2023/06/05 01:14:48;;;;;;;6.45;2.35;;;;;;;13.46;100.00;102241.13;4972928;28;20485;-72
2023/06/05 01:17:18;;;;;;;7.40;2.28;;;;;;;13.41;100.00;102241.22;4971192;28;20059;-72
2023/06/05 01:19:46;;;;;;;7.20;2.25;;;;;;;13.41;100.00;102245.63;4968981;28;20162;-72
2023/06/05 01:22:12;;;;;;;7.32;2.58;;;;;;;13.42;100.00;102245.59;4972391;28;20054;-73
2023/06/05 01:24:40;;;;;;;9.88;3.72;;;;;;;13.53;100.00;102242.69;4963438;28;20165;-72
2023/06/05 01:27:17;;;;;;;9.43;3.40;;;;;;;13.41;100.00;102254.38;4971962;28;20086;-72
2023/06/05 01:30:01;;;;;;;9.05;3.95;;;;;;;13.22;100.00;102247.81;4962101;28;20047;-73
2023/06/05 01:33:02;;;;;;;8.65;3.25;;;;;;;13.23;100.00;102236.41;4972481;28;20516;-72
2023/06/05 01:35:33;;;;;;;8.50;3.40;;;;;;;13.19;100.00;102237.34;4959339;28;20055;-72
2023/06/05 01:38:02;;;;;;;11.65;3.85;;;;;;;13.18;100.00;102236.50;4973100;28;20540;-73
2023/06/05 01:40:30;;;;;;;8.85;3.38;;;;;;;13.22;100.00;102238.13;4972403;28;20133;-72
2023/06/05 01:43:00;;;;;;;9.90;4.32;;;;;;;13.25;100.00;102240.69;4955379;28;20524;-72
2023/06/05 01:45:27;;;;;;;12.98;4.68;;;;;;;13.20;100.00;102236.47;4969103;28;20054;-72
2023/06/05 01:47:56;;;;;;;11.05;4.43;;;;;;;13.13;100.00;102234.88;4971743;28;20053;-72
2023/06/05 01:50:24;;;;;;;9.80;3.95;;;;;;;13.07;100.00;102230.66;4972175;28;20105;-72
2023/06/05 01:52:52;;;;;;;9.73;3.78;;;;;;;13.14;100.00;102228.72;4972058;28;20134;-72
2023/06/05 01:55:26;;;;;;;10.07;4.07;;;;;;;13.18;100.00;102220.72;4971613;28;20404;-72
2023/06/05 01:57:53;;;;;;;13.73;5.90;;;;;;;13.20;100.00;102232.06;4972480;28;20047;-72
2023/06/05 02:00:20;;;;;;;14.23;6.28;;;;;;;13.13;100.00;102234.88;4970760;28;20493;-72
2023/06/05 02:02:48;;;;;;;12.63;5.75;;;;;;;13.08;100.00;102233.25;4971351;28;20145;-72
2023/06/05 02:05:17;;;;;;;12.38;5.05;;;;;;;13.11;100.00;102232.28;4967533;28;20078;-71
2023/06/05 02:07:53;;;;;;;12.20;5.22;;;;;;;13.12;100.00;102228.78;4970453;28;20129;-71
2023/06/05 02:10:21;;;;;;;11.50;4.53;;;;;;;13.21;100.00;102214.50;4969093;28;20057;-72
2023/06/05 02:12:48;;;;;;;10.90;4.70;;;;;;;13.13;100.00;102225.22;4971243;28;20051;-72
2023/06/05 02:15:15;;;;;;;11.20;4.47;;;;;;;13.22;100.00;102222.38;4970688;28;20656;-72
2023/06/05 02:17:50;;;;;;;14.27;6.22;;;;;;;13.05;100.00;102216.66;4972241;28;20121;-72
2023/06/05 02:20:18;;;;;;;14.05;6.13;;;;;;;13.19;100.00;102232.97;4971162;28;20484;-73
2023/06/05 02:22:49;;;;;;;14.75;6.93;;;;;;;13.17;100.00;102226.88;4971425;28;20124;-71
2023/06/05 02:25:16;;;;;;;12.13;5.32;;;;;;;13.16;100.00;102233.06;4974619;28;20548;-72
2023/06/05 02:27:45;;;;;;;11.95;4.35;;;;;;;13.37;100.00;102242.22;4958412;28;20061;-73
2023/06/05 02:30:12;;;;;;;9.32;4.03;;;;;;;13.13;100.00;102203.34;4968069;28;20054;-72
2023/06/05 02:32:43;;;;;;;9.75;4.20;;;;;;;13.28;100.00;102238.00;4970996;28;20047;-73
2023/06/05 02:35:11;;;;;;;9.48;4.05;;;;;;;13.24;100.00;102219.69;4953744;28;20481;-72
2023/06/05 02:37:43;;;;;;;8.45;3.47;;;;;;;13.34;100.00;102215.97;4972157;28;20061;-72
2023/06/05 02:40:13;;;;;;;10.38;4.05;;;;;;;13.38;100.00;102224.66;4967887;28;20412;-72
2023/06/05 02:42:41;;;;;;;12.00;4.70;;;;;;;13.35;100.00;102225.59;4970797;28;20146;-72
2023/06/05 02:45:08;;;;;;;8.77;3.75;;;;;;;13.36;100.00;102237.84;4969696;28;20532;-72
2023/06/05 02:47:35;;;;;;;9.85;3.95;;;;;;;13.36;100.00;102223.81;4970571;28;20078;-72
2023/06/05 02:50:02;;;;;;;10.85;4.13;;;;;;;13.17;100.00;102203.19;4971056;28;20047;-72
2023/06/05 02:52:32;;;;;;;10.23;4.55;;;;;;;13.30;100.00;102222.19;4971280;28;20457;-73
2023/06/05 02:54:58;;;;;;;10.48;4.78;;;;;;;13.27;100.00;102228.38;4967767;28;20138;-72
2023/06/05 02:57:26;;;;;;;12.05;4.55;;;;;;;13.16;100.00;102222.53;4970014;28;20062;-72
2023/06/05 02:59:55;;;;;;;11.20;5.63;;;;;;;13.12;100.00;102215.63;4971731;28;20047;-73
2023/06/05 03:02:22;;;;;;;10.20;4.20;;;;;;;13.13;100.00;102219.97;4971725;28;20074;-72
2023/06/05 03:04:53;;;;;;;8.30;3.70;;;;;;;13.18;100.00;102227.75;4968979;28;20106;-72
2023/06/05 03:07:22;;;;;;;10.07;4.30;;;;;;;13.14;100.00;102220.81;4961412;28;20057;-72
2023/06/05 03:09:49;;;;;;;10.48;4.75;;;;;;;13.10;100.00;102212.16;4970301;28;20051;-72
2023/06/05 03:12:16;;;;;;;12.55;5.50;;;;;;;13.27;100.00;102220.47;4970969;28;20101;-72
2023/06/05 03:14:43;;;;;;;11.93;4.47;;;;;;;13.22;100.00;102211.84;4969646;28;20085;-72
2023/06/05 03:17:10;;;;;;;10.05;3.90;;;;;;;13.20;100.00;102221.53;4959994;28;20051;-72
2023/06/05 03:19:37;;;;;;;11.98;5.60;;;;;;;12.99;100.00;102222.94;4971165;28;20057;-72
2023/06/05 03:22:05;;;;;;;9.60;3.67;;;;;;;13.15;100.00;102220.78;4969840;28;20112;-72
2023/06/05 03:24:31;;;;;;;10.05;4.35;;;;;;;13.07;100.00;102218.34;4971028;28;20528;-71
2023/06/05 03:26:58;;;;;;;8.75;3.47;;;;;;;13.12;100.00;102220.88;4969962;28;20097;-71
2023/06/05 03:29:25;;;;;;;8.93;3.33;;;;;;;13.27;100.00;102222.25;4970904;28;20054;-72
2023/06/05 03:31:51;;;;;;;9.32;3.45;;;;;;;13.13;100.00;102227.84;4969922;28;20061;-72
2023/06/05 03:34:18;;;;;;;8.93;3.38;;;;;;;13.09;100.00;102213.06;4969835;28;20046;-72
2023/06/05 03:36:45;;;;;;;8.55;3.13;;;;;;;13.15;100.00;102212.91;4969416;28;20047;-72
2023/06/05 03:39:12;;;;;;;9.00;3.33;;;;;;;13.13;100.00;102227.00;4970478;28;20062;-72
2023/06/05 03:41:38;;;;;;;11.77;4.15;;;;;;;13.20;100.00;102228.56;4970589;28;20051;-72
2023/06/05 03:44:06;;;;;;;8.75;3.75;;;;;;;13.20;100.00;102231.22;4969736;28;20057;-72
2023/06/05 03:46:33;;;;;;;9.02;3.53;;;;;;;13.22;100.00;102234.66;4968966;28;20057;-72
2023/06/05 03:49:05;;;;;;;8.73;3.03;;;;;;;13.06;100.00;102231.53;4969570;28;20058;-71
2023/06/05 03:51:32;;;;;;;8.73;2.97;;;;;;;13.21;100.00;102223.28;4969732;28;20065;-72
2023/06/05 03:53:59;;;;;;;8.77;3.50;;;;;;;13.19;100.00;102232.09;4957988;28;20560;-72
2023/06/05 03:56:34;;;;;;;7.60;2.90;;;;;;;13.15;100.00;102226.03;4968706;28;20074;-72
2023/06/05 03:59:08;;;;;;;7.93;3.05;;;;;;;13.19;100.00;102232.09;4970481;28;20133;-72
2023/06/05 04:01:38;;;;;;;6.35;2.17;;;;;;;13.14;100.00;102226.06;4969707;28;20055;-72
2023/06/05 04:04:06;;;;;;;6.47;2.00;;;;;;;13.17;100.00;102218.13;4970004;28;20070;-72
2023/06/05 04:06:33;;;;;;;7.25;2.20;;;;;;;13.01;100.00;102217.63;4969118;28;20056;-72
2023/06/05 04:09:00;;;;;;;5.97;2.15;;;;;;;13.11;100.00;102219.16;4970111;28;20520;-71
2023/06/05 04:11:26;;;;;;;5.60;1.83;;;;;;;13.07;100.00;102217.50;4966294;28;20145;-72
2023/06/05 04:13:56;;;;;;;6.53;2.08;;;;;;;13.10;100.00;102217.41;4970434;28;20051;-72
2023/06/05 04:16:23;;;;;;;6.30;2.22;;;;;;;13.04;100.00;102217.56;4968842;28;20051;-72
2023/06/05 04:18:49;;;;;;;7.55;2.42;;;;;;;13.06;100.00;102223.66;4969670;28;20078;-72
2023/06/05 04:21:16;;;;;;;7.35;2.03;;;;;;;13.10;100.00;102228.81;4970244;28;20055;-72
2023/06/05 04:23:43;;;;;;;8.18;2.90;;;;;;;12.98;100.00;102226.47;4970299;28;20502;-72
2023/06/05 04:26:11;;;;;;;7.03;2.33;;;;;;;12.91;100.00;102211.75;4973712;28;20054;-72
2023/06/05 04:28:38;;;;;;;7.93;2.67;;;;;;;12.96;100.00;102203.72;4963367;28;20386;-73
2023/06/05 04:31:05;;;;;;;7.80;2.47;;;;;;;13.00;100.00;102224.66;4969948;28;20053;-72
2023/06/05 04:33:33;;;;;;;6.53;2.28;;;;;;;12.90;100.00;102221.38;4970207;28;20070;-72
2023/06/05 04:35:59;;;;;;;5.32;1.83;;;;;;;12.95;100.00;102229.16;4968980;28;20043;-72
2023/06/05 04:38:27;;;;;;;7.65;2.42;;;;;;;12.89;100.00;102213.53;4970680;28;20101;-72
2023/06/05 04:40:54;;;;;;;6.93;2.30;;;;;;;12.85;100.00;102228.50;4969903;28;20073;-72
2023/06/05 04:43:22;;;;;;;6.88;2.47;;;;;;;12.88;100.00;102228.44;4970970;28;20053;-72
2023/06/05 04:45:49;;;;;;;9.75;2.85;;;;;;;12.87;100.00;102226.72;4970075;28;20078;-72
2023/06/05 04:48:16;;;;;;;8.32;2.70;;;;;;;13.01;100.00;102215.84;4970745;28;20050;-72
2023/06/05 04:50:43;;;;;;;5.45;2.10;;;;;;;12.96;100.00;102215.13;4970487;28;20054;-72
2023/06/05 04:53:10;;;;;;;6.28;2.40;;;;;;;13.08;100.00;102224.47;4971142;28;20138;-71
2023/06/05 04:55:37;;;;;;;8.18;3.00;;;;;;;12.96;100.00;102220.41;4973362;28;20370;-72
2023/06/05 04:58:04;;;;;;;8.57;3.30;;;;;;;12.87;100.00;102232.00;4973632;28;20150;-71
2023/06/05 05:00:30;;;;;;;8.40;3.10;;;;;;;12.71;100.00;102217.44;4974234;28;20137;-73
2023/06/05 05:02:59;;;;;;;8.32;3.22;;;;;;;12.88;100.00;102223.19;4973257;28;20544;-73
2023/06/05 05:05:26;;;;;;;7.72;2.70;;;;;;;12.87;100.00;102225.84;4972727;28;20050;-72
2023/06/05 05:07:53;;;;;;;6.78;2.40;;;;;;;12.89;100.00;102227.56;4972905;28;20146;-73
2023/06/05 05:10:22;;;;;;;6.95;2.45;;;;;;;12.92;100.00;102223.97;4973576;28;20681;-72
2023/06/05 05:12:49;;;;;;;7.13;2.67;;;;;;;12.94;100.00;102222.16;4973839;28;20141;-72
2023/06/05 05:15:16;;;;;;;8.70;3.38;;;;;;;13.06;100.00;102223.66;4969623;28;20084;-72
2023/06/05 05:17:42;;;;;;;7.82;3.00;;;;;;;12.96;100.00;102209.00;4965360;28;20453;-72
2023/06/05 05:20:10;;;;;;;7.43;2.45;;;;;;;13.02;100.00;102222.00;4967556;28;20137;-72
2023/06/05 05:22:38;;;;;;;9.30;2.67;;;;;;;13.08;100.00;102233.25;4971210;28;20481;-72
2023/06/05 05:25:06;;;;;;;8.75;3.33;;;;;;;13.13;100.00;102230.47;4971554;28;20087;-72
2023/06/05 05:27:32;;;;;;;7.95;2.72;;;;;;;13.16;100.00;102219.03;4972747;28;20146;-72
2023/06/05 05:29:59;;;;;;;8.02;2.60;;;;;;;13.22;100.00;102229.41;4972357;28;20427;-72
2023/06/05 05:32:26;;;;;;;7.03;2.58;;;;;;;13.15;100.00;102226.03;4971612;28;20512;-72
2023/06/05 05:34:53;;;;;;;10.88;3.50;;;;;;;13.00;100.00;102221.19;4971775;28;20603;-72
2023/06/05 05:37:20;;;;;;;8.93;3.30;;;;;;;13.06;100.00;102226.28;4966220;28;20046;-72
2023/06/05 05:39:47;;;;;;;11.32;4.38;;;;;;;12.83;100.00;102225.06;4971021;28;20145;-72
2023/06/05 05:42:14;;;;;;;13.88;4.47;;;;;;;12.76;100.00;102230.50;4971749;28;20061;-73
2023/06/05 05:44:43;;;;;;;11.27;4.85;;;;;;;12.90;100.00;102220.53;4972230;28;20051;-72
2023/06/05 05:47:11;;;;;;;9.02;2.80;;;;;;;13.03;100.00;102221.97;4970014;28;20467;-72
2023/06/05 05:49:37;;;;;;;8.35;3.75;;;;;;;13.00;100.00;102219.41;4970952;28;20057;-73
2023/06/05 05:52:04;;;;;;;7.93;3.05;;;;;;;12.99;100.00;102233.44;4969941;28;20389;-72
2023/06/05 05:54:31;;;;;;;7.70;2.75;;;;;;;12.90;100.00;102197.72;4968944;28;20263;-73
2023/06/05 05:56:57;;;;;;;9.40;3.53;;;;;;;13.17;100.00;102233.91;4969171;28;20110;-72
2023/06/05 05:59:24;;;;;;;11.70;4.43;;;;;;;12.98;100.00;102225.59;4969930;28;20059;-72
2023/06/05 06:01:51;;;;;;;9.15;3.15;;;;;;;13.12;100.00;102218.25;4966970;28;20063;-72
2023/06/05 06:04:19;;;;;;;9.38;3.60;;;;;;;13.11;100.00;102232.28;4963461;28;20066;-72
2023/06/05 06:06:48;;;;;;;9.48;3.28;;;;;;;13.24;100.00;102232.84;4969594;28;20051;-72
2023/06/05 06:09:14;;;;;;;7.22;2.75;;;;;;;13.37;100.00;102241.31;4971256;28;20050;-72
2023/06/05 06:11:42;;;;;;;6.75;2.65;;;;;;;13.40;100.00;102236.00;4971950;28;20042;-72
2023/06/05 06:14:10;;;;;;;9.02;3.20;;;;;;;13.33;100.00;102237.03;4971708;28;20412;-71
2023/06/05 06:16:37;;;;;;;10.25;3.38;;;;;;;13.25;100.00;102235.44;4969870;28;20055;-71
2023/06/05 06:19:04;;;;;;;7.38;2.90;;;;;;;13.18;100.00;102225.97;4970201;28;20445;-70
2023/06/05 06:21:31;;;;;;;12.05;4.32;;;;;;;13.35;100.00;102235.25;4969095;28;20061;-70
2023/06/05 06:23:58;;;;;;;8.68;3.40;;;;;;;13.36;100.00;102239.59;4970787;28;20069;-70
2023/06/05 06:26:26;;;;;;;7.97;3.03;;;;;;;13.35;100.00;102237.88;4970676;28;20374;-70
2023/06/05 06:28:55;;;;;;;7.57;2.72;;;;;;;13.39;100.00;102242.16;4971161;28;20066;-70
2023/06/05 06:31:22;;;;;;;12.63;3.10;;;;;;;13.48;100.00;102240.16;4953272;28;20042;-70
2023/06/05 06:33:49;;;;;;;9.65;3.55;;;;;;;13.50;100.00;102242.75;4967851;28;20062;-70
2023/06/05 06:36:17;;;;;;;7.63;2.80;;;;;;;13.41;100.00;102232.47;4974275;28;20576;-71
2023/06/05 06:38:44;;;;;;;8.85;3.20;;;;;;;13.55;100.00;102242.66;4969609;28;20059;-70
2023/06/05 06:41:12;;;;;;;6.20;2.10;;;;;;;13.48;100.00;102232.25;4969280;28;20517;-70
2023/06/05 06:43:39;;;;;;;9.50;3.50;;;;;;;13.52;100.00;102240.94;4971019;28;20057;-70
2023/06/05 06:46:06;;;;;;;8.02;3.15;;;;;;;13.53;100.00;102240.03;4966789;28;20056;-71
2023/06/05 06:48:33;;;;;;;7.50;2.70;;;;;;;13.55;100.00;102234.75;4970461;28;20428;-70
2023/06/05 06:51:00;;;;;;;7.18;2.75;;;;;;;13.68;100.00;102242.25;4971293;28;20057;-70
2023/06/05 06:53:27;;;;;;;7.43;2.58;;;;;;;13.49;100.00;102248.91;4955083;28;20046;-70
2023/06/05 06:55:54;;;;;;;7.65;2.85;;;;;;;13.47;100.00;102232.28;4965616;28;20086;-71
2023/06/05 06:58:21;;;;;;;9.00;3.00;;;;;;;13.53;100.00;102244.41;4955633;28;20155;-71
2023/06/05 07:00:49;;;;;;;8.95;3.20;;;;;;;13.71;100.00;102243.09;4963978;28;20125;-70
2023/06/05 07:03:16;;;;;;;7.43;2.63;;;;;;;13.61;100.00;102231.94;4946875;28;20058;-70
2023/06/05 07:05:42;;;;;;;10.30;2.67;;;;;;;13.56;100.00;102241.72;4972048;28;20050;-70
2023/06/05 07:08:09;;;;;;;9.32;3.67;;;;;;;13.45;100.00;102242.84;4970090;28;20057;-70
2023/06/05 07:10:36;;;;;;;8.68;2.75;;;;;;;13.48;100.00;102250.69;4972410;28;20141;-70
2023/06/05 07:13:03;;;;;;;9.57;2.70;;;;;;;13.46;100.00;102243.75;4967227;28;20055;-70
2023/06/05 07:15:30;;;;;;;8.10;3.08;;;;;;;13.71;100.00;102241.31;4970638;28;20061;-70
2023/06/05 07:17:56;;;;;;;6.65;2.53;;;;;;;13.66;100.00;102246.69;4970868;28;20246;-70
2023/06/05 07:20:23;;;;;;;6.53;2.38;;;;;;;13.76;100.00;102234.16;4960915;28;20049;-70
2023/06/05 07:22:50;;;;;;;6.15;2.28;;;;;;;13.84;100.00;102242.69;4963703;28;20389;-70
2023/06/05 07:25:17;;;;;;;9.10;3.33;;;;;;;13.70;100.00;102242.22;4962151;28;20052;-70
2023/06/05 07:27:45;;;;;;;6.70;2.40;;;;;;;13.64;100.00;102243.25;4971389;28;20104;-71
2023/06/05 07:30:15;;;;;;;7.28;2.50;;;;;;;13.64;100.00;102234.50;4970892;28;20129;-70
2023/06/05 07:32:42;;;;;;;7.90;2.38;;;;;;;13.95;100.00;102254.72;4963675;28;20042;-70
2023/06/05 07:35:10;;;;;;;7.10;2.55;;;;;;;13.95;100.00;102242.44;4970269;28;20070;-71
2023/06/05 07:37:36;;;;;;;6.82;2.50;;;;;;;13.70;100.00;102234.31;4970167;28;20449;-71
2023/06/05 07:40:03;;;;;;;8.05;2.40;;;;;;;13.84;100.00;102244.47;4971639;28;20101;-70
2023/06/05 07:42:30;;;;;;;8.23;2.63;;;;;;;13.84;100.00;102242.69;4947797;28;20042;-70
2023/06/05 07:44:57;;;;;;;6.57;2.35;;;;;;;13.81;100.00;102245.44;4970582;28;20054;-70
2023/06/05 07:47:24;;;;;;;6.32;2.30;;;;;;;13.81;100.00;102253.34;4970949;28;20581;-70
2023/06/05 07:49:59;;;;;;;5.50;2.00;;;;;;;13.78;100.00;102242.03;4958509;28;20061;-70
2023/06/05 07:52:31;;;;;;;7.93;2.30;;;;;;;13.93;100.00;102249.50;4971606;28;20488;-70
2023/06/05 07:54:58;;;;;;;7.72;2.67;;;;;;;13.88;100.00;102240.84;4969967;28;20528;-70
2023/06/05 07:57:25;;;;;;;7.93;2.83;;;;;;;13.96;100.00;102256.47;4964883;28;20634;-70
2023/06/05 07:59:53;;;;;;;7.40;2.67;;;;;;;13.80;100.00;102246.34;4963312;28;20492;-70
2023/06/05 08:02:21;;;;;;;9.30;3.42;;;;;;;13.92;100.00;102252.19;4971242;28;20137;-70
2023/06/05 08:04:47;;;;;;;6.05;2.20;;;;;;;13.95;100.00;102249.44;4969763;28;20050;-70
2023/06/05 08:07:14;;;;;;;9.82;3.33;;;;;;;13.96;100.00;102238.88;4960585;28;20138;-70
2023/06/05 08:09:41;;;;;;;7.20;2.88;;;;;;;14.03;100.00;102243.06;4969853;28;20082;-71
2023/06/05 08:12:08;;;;;;;8.07;3.10;;;;;;;14.09;100.00;102247.28;4965640;28;20129;-71
2023/06/05 08:14:36;;;;;;;6.68;2.35;;;;;;;14.01;100.00;102252.78;4970512;28;20142;-71
2023/06/05 08:17:03;;;;;;;7.22;2.42;;;;;;;14.16;100.00;102243.56;4968800;28;20046;-71
2023/06/05 08:19:30;;;;;;;6.80;2.30;;;;;;;14.27;100.00;102252.94;4962803;28;20054;-71
2023/06/05 08:21:57;;;;;;;8.18;2.63;;;;;;;14.15;100.00;102233.09;4957874;28;20093;-71
2023/06/05 08:24:24;;;;;;;7.35;2.55;;;;;;;14.26;100.00;102240.69;4964469;28;20404;-71
2023/06/05 08:26:50;;;;;;;11.75;3.42;;;;;;;14.18;100.00;102235.63;4951216;28;20105;-71
2023/06/05 08:29:17;;;;;;;9.50;3.05;;;;;;;14.15;100.00;102233.09;4968787;28;20397;-71
2023/06/05 08:31:44;;;;;;;8.00;2.45;;;;;;;14.21;100.00;102230.28;4974362;28;20050;-71
2023/06/05 08:34:12;;;;;;;8.30;2.60;;;;;;;14.28;100.00;102239.72;4966346;28;20047;-70
2023/06/05 08:36:38;;;;;;;6.45;2.30;;;;;;;14.24;100.00;102238.97;4968408;28;20070;-69
2023/06/05 08:39:05;;;;;;;8.77;3.03;;;;;;;14.44;100.00;102238.38;4970671;28;20058;-70
2023/06/05 08:41:32;;;;;;;8.85;3.38;;;;;;;14.27;100.00;102226.59;4974248;28;20134;-70
2023/06/05 08:43:59;;;;;;;8.02;2.88;;;;;;;14.34;100.00;102229.03;4974184;28;20057;-70
2023/06/05 08:46:32;;;;;;;7.65;2.78;;;;;;;14.26;100.00;102230.16;4970277;28;20046;-70
2023/06/05 08:49:08;;;;;;;10.70;3.00;;;;;;;14.32;100.00;102241.34;4971206;28;20069;-70
2023/06/05 08:51:35;;;;;;;9.32;3.47;;;;;;;14.38;100.00;102240.34;4971289;28;20130;-70
2023/06/05 08:54:12;;;;;;;9.57;3.50;;;;;;;14.29;100.00;102232.69;4974788;28;20130;-70
2023/06/05 08:56:40;;;;;;;11.00;2.90;;;;;;;14.37;100.00;102222.78;4973863;28;20108;-70
2023/06/05 08:59:07;;;;;;;5.97;2.17;;;;;;;14.69;100.00;102240.28;4973823;28;20083;-70
2023/06/05 09:01:35;;;;;;;8.77;2.40;;;;;;;14.71;100.00;102222.66;4973795;28;20063;-70
2023/06/05 09:04:01;;;;;;;7.97;2.30;;;;;;;14.71;100.00;102227.91;4972790;28;20050;-70
2023/06/05 09:06:28;;;;;;;8.30;2.60;;;;;;;14.68;100.00;102224.50;4972433;28;20043;-71
2023/06/05 09:08:55;;;;;;;6.78;2.20;;;;;;;14.59;100.00;102234.44;4973871;28;20428;-71
2023/06/05 09:11:23;;;;;;;7.43;2.50;;;;;;;14.51;100.00;102241.69;4974416;28;20501;-70
2023/06/05 09:13:50;;;;;;;7.47;2.63;;;;;;;14.64;100.00;102238.72;4974050;28;20051;-71
2023/06/05 09:16:35;;;;;;;6.50;2.55;;;;;;;14.54;100.00;102224.94;4970430;28;20054;-70
2023/06/05 09:19:03;;;;;;;9.82;2.60;;;;;;;14.56;100.00;102233.66;4971399;28;20390;-70
2023/06/05 09:21:31;;;;;;;6.82;2.67;;;;;;;14.54;100.00;102246.03;4965054;28;20445;-70
2023/06/05 09:24:07;;;;;;;6.97;2.35;;;;;;;14.63;100.00;102234.38;4973816;28;20046;-70
2023/06/05 09:27:02;;;;;;;7.00;2.60;;;;;;;14.59;100.00;102244.13;4972996;28;20121;-70
2023/06/05 09:29:33;;;;;;;11.13;2.67;;;;;;;14.66;100.00;102242.16;4973165;28;20057;-70
2023/06/05 09:32:02;;;;;;;6.30;2.13;;;;;;;14.67;100.00;102233.34;4956569;28;20340;-70
2023/06/05 09:34:29;;;;;;;6.18;1.88;;;;;;;14.89;100.00;102241.44;4973063;28;20049;-70
2023/06/05 09:36:58;;;;;;;7.15;2.22;;;;;;;14.86;100.00;102228.38;4972640;28;20104;-70
2023/06/05 09:39:26;;;;;;;7.88;2.33;;;;;;;14.69;100.00;102242.91;4973372;28;20078;-70
2023/06/05 09:41:54;;;;;;;7.28;2.50;;;;;;;14.73;100.00;102239.31;4971923;28;20457;-70
2023/06/05 09:44:22;;;;;;;7.57;2.30;;;;;;;14.66;100.00;102236.88;4972791;28;20110;-70
2023/06/05 09:46:50;;;;;;;6.95;2.35;;;;;;;14.54;100.00;102230.19;4969133;28;20078;-70
2023/06/05 09:49:17;;;;;;;6.63;2.30;;;;;;;14.71;100.00;102227.06;4973249;28;20070;-70
2023/06/05 09:51:45;;;;;;;6.55;1.88;;;;;;;14.74;100.00;102229.59;4972755;28;20057;-70
2023/06/05 09:54:13;;;;;;;7.85;2.00;;;;;;;14.86;100.00;102241.56;4972205;28;20514;-70
2023/06/05 09:56:43;;;;;;;8.23;2.45;;;;;;;14.77;100.00;102240.91;4971777;28;20053;-70
2023/06/05 09:59:16;;;;;;;7.68;2.58;;;;;;;14.94;100.00;102239.53;4973559;28;20493;-71
2023/06/05 10:01:43;;;;;;;7.22;2.00;;;;;;;14.88;100.00;102240.59;4972976;28;20463;-70
2023/06/05 10:04:15;;;;;;;8.15;2.30;;;;;;;14.76;100.00;102233.06;4970031;28;20047;-70
2023/06/05 10:06:42;;;;;;;6.00;2.05;;;;;;;14.83;100.00;102239.00;4968993;28;20105;-70
2023/06/05 10:09:11;;;;;;;8.50;2.88;;;;;;;14.78;100.00;102234.75;4971525;28;20047;-71
2023/06/05 10:11:40;;;;;;;6.32;2.30;;;;;;;14.88;100.00;102232.66;4972791;28;20149;-70
2023/06/05 10:14:09;;;;;;;6.97;2.15;;;;;;;14.77;100.00;102234.78;4968739;28;20141;-70
2023/06/05 10:16:36;;;;;;;9.48;3.08;;;;;;;14.56;100.00;102239.78;4970590;28;20054;-70
2023/06/05 10:19:03;;;;;;;6.30;2.42;;;;;;;14.59;100.00;102250.25;4971098;28;20057;-70
2023/06/05 10:21:30;;;;;;;9.88;3.47;;;;;;;14.49;100.00;102243.50;4971611;28;20051;-70
2023/06/05 10:24:05;;;;;;;8.63;2.75;;;;;;;14.22;100.00;102248.69;4967640;28;20042;-70
2023/06/05 10:26:51;;;;;;;8.75;3.42;;;;;;;14.16;100.00;102242.72;4972676;28;20054;-70
2023/06/05 10:29:28;;;;;;;7.93;2.67;;;;;;;14.30;100.00;102251.09;4954429;28;20051;-70
2023/06/05 10:32:03;;;;;;;7.10;2.42;;;;;;;14.23;100.00;102244.28;4972843;28;20082;-70
2023/06/05 10:34:47;;;;;;;7.38;2.40;;;;;;;14.39;100.00;102256.06;4967456;28;20057;-71
2023/06/05 10:37:39;;;;;;;7.93;3.17;;;;;;;14.29;100.00;102252.00;4969991;28;20046;-70
2023/06/05 10:40:09;;;;;;;7.55;2.33;;;;;;;14.31;100.00;102244.06;4971938;28;20424;-71
2023/06/05 10:42:36;;;;;;;6.85;2.47;;;;;;;14.37;100.00;102251.78;4963981;28;20082;-72
2023/06/05 10:45:03;;;;;;;8.15;2.60;;;;;;;14.38;100.00;102251.72;4969368;28;20146;-71
2023/06/05 10:47:33;;;;;;;6.30;2.40;;;;;;;14.40;100.00;102255.19;4966498;28;20409;-71
2023/06/05 10:50:15;;;;;;;6.18;2.22;;;;;;;14.32;100.00;102253.69;4970194;28;20073;-71
2023/06/05 10:52:44;;;;;;;6.87;2.47;;;;;;;14.48;100.00;102252.31;4971414;28;20062;-71
2023/06/05 10:55:12;;;;;;;8.82;2.22;;;;;;;14.53;100.00;102255.66;4971751;28;20420;-69
2023/06/05 10:58:00;;;;;;;7.13;2.03;;;;;;;14.55;100.00;102251.22;4961714;28;20094;-68
2023/06/05 11:00:30;;;;;;;4.95;1.80;;;;;;;14.55;100.00;102242.44;4964889;28;20046;-69
2023/06/05 11:02:58;;;;;;;8.10;2.35;;;;;;;14.70;100.00;102235.91;4962593;28;20047;-69
2023/06/05 11:05:28;;;;;;;5.70;1.77;;;;;;;14.67;100.00;102242.13;4946951;28;20061;-69
2023/06/05 11:08:14;;;;;;;6.35;1.80;;;;;;;14.85;100.00;102253.84;4967475;28;20502;-68
2023/06/05 11:11:09;;;;;;;6.03;2.03;;;;;;;14.80;100.00;102255.78;4970522;28;20572;-68
2023/06/05 11:13:54;;;;;;;6.90;2.05;;;;;;;14.68;100.00;102254.41;4971047;28;20043;-68
2023/06/05 11:16:36;;;;;;;6.00;2.22;;;;;;;14.68;100.00;102254.41;4965399;28;20485;-69
2023/06/05 11:19:15;;;;;;;6.88;2.20;;;;;;;14.73;100.00;102259.50;4969751;28;20658;-69
2023/06/05 11:22:02;;;;;;;6.18;2.20;;;;;;;14.81;100.00;102254.88;4970264;28;20141;-69
2023/06/05 11:24:30;;;;;;;4.03;1.50;;;;;;;14.79;100.00;102256.69;4972174;28;20047;-69